Ann Arbor, Michigan
Current Conditions -  °F | °C
As of 4:53 PM on Sunday 21 Dec 2014 (Local Time) from KARB Reporting Station
Overcast Overcast  
Wind Chill: -2°   Ceiling: 5500
Heat Index:   Visibility: 8mi
Dew Point: -4°   Wind: 6mph
Humidity: 72%   Direction: 130°SE
Pressure: 30.21"   Gusts: NA
Location:  42.28°N, 83.75°W
Report Text: KARB 212153Z AUTO 13005KT 8SM OVC055 01/M04 A3021 RMK AO2 SLP241 T00061039
Loading
Personal Weather Stations






























Interactive Weather Map New forecast layout! Learn more

10-Day Weather Forecast

Advertisements
Track Severe Weather on mobile